createdAt,value
2023-02-23T00:00:14.915Z,-0.89
2023-02-23T00:03:02.055Z,-0.86
2023-02-23T00:05:50.897Z,-0.85
2023-02-23T00:08:37.765Z,-0.86
2023-02-23T00:11:29.660Z,-1.06
2023-02-23T00:14:16.742Z,-0.86
2023-02-23T00:17:03.608Z,-0.97
2023-02-23T00:19:50.793Z,-0.85
2023-02-23T00:22:37.654Z,-0.87
2023-02-23T00:25:25.178Z,-0.84
2023-02-23T00:28:12.314Z,-0.83
2023-02-23T00:31:00.031Z,-0.82
2023-02-23T00:33:47.049Z,-0.83
2023-02-23T00:36:35.059Z,-0.81
2023-02-23T00:39:28.600Z,-0.81
2023-02-23T00:42:16.535Z,-0.81
2023-02-23T00:45:03.414Z,-0.80
2023-02-23T00:47:50.460Z,-0.80
2023-02-23T00:50:37.907Z,-0.80
2023-02-23T00:53:25.037Z,-0.80
2023-02-23T00:56:11.914Z,-0.79
2023-02-23T00:58:59.494Z,-0.78
2023-02-23T01:01:47.170Z,-0.77
2023-02-23T01:04:34.495Z,-0.78
2023-02-23T01:07:21.554Z,-0.77
2023-02-23T01:10:09.911Z,-0.80
2023-02-23T01:12:57.417Z,-0.77
2023-02-23T01:15:44.678Z,-0.74
2023-02-23T01:18:31.751Z,-0.72
2023-02-23T01:21:19.134Z,-0.72
2023-02-23T01:24:06.699Z,-0.89
2023-02-23T01:26:58.359Z,-0.74
2023-02-23T01:29:45.286Z,-0.85
2023-02-23T01:32:33.835Z,-0.70
2023-02-23T01:35:20.744Z,-1.02
2023-02-23T01:38:09.873Z,-0.67
2023-02-23T01:40:56.777Z,-0.74
2023-02-23T01:43:43.962Z,-0.68
2023-02-23T01:46:30.889Z,-0.62
2023-02-23T01:49:17.978Z,-0.61
2023-02-23T01:52:11.569Z,-0.60
2023-02-23T01:55:08.245Z,-0.70
2023-02-23T01:57:56.733Z,-0.56
2023-02-23T02:00:47.525Z,-0.56
2023-02-23T02:03:46.079Z,-0.54
2023-02-23T02:06:39.578Z,-0.79
2023-02-23T02:09:33.298Z,-0.53
2023-02-23T02:12:20.351Z,-0.53
2023-02-23T02:15:07.347Z,-0.52
2023-02-23T02:18:16.230Z,-0.52
2023-02-23T02:21:31.007Z,-0.51
2023-02-23T02:24:42.882Z,-0.50
2023-02-23T02:27:53.937Z,-0.50
2023-02-23T02:30:53.077Z,-0.49
2023-02-23T02:34:01.629Z,-0.50
2023-02-23T02:37:16.059Z,-0.49
2023-02-23T02:40:13.553Z,-0.52
2023-02-23T02:43:15.227Z,-0.53
2023-02-23T02:46:16.689Z,-0.52
2023-02-23T02:49:38.621Z,-0.53
2023-02-23T02:52:46.070Z,-0.52
2023-02-23T02:55:33.035Z,-0.53
2023-02-23T02:58:22.560Z,-0.54
2023-02-23T03:01:09.171Z,-0.54
2023-02-23T03:04:01.907Z,-0.55
2023-02-23T03:06:57.055Z,-0.55
2023-02-23T03:10:12.453Z,-0.58
2023-02-23T03:13:36.272Z,-0.57
2023-02-23T03:16:35.334Z,-0.59
2023-02-23T03:19:27.084Z,-0.59
2023-02-23T03:22:25.980Z,-0.60
2023-02-23T03:25:42.888Z,-0.60
2023-02-23T03:28:45.536Z,-0.63
2023-02-23T03:31:34.411Z,-0.63
2023-02-23T03:34:38.360Z,-0.64
2023-02-23T03:37:38.446Z,-0.65
2023-02-23T03:40:37.625Z,-0.65
2023-02-23T03:43:30.829Z,-0.73
2023-02-23T03:46:19.302Z,-0.67
2023-02-23T03:49:06.785Z,-0.67
2023-02-23T03:51:55.312Z,-0.68
2023-02-23T03:54:53.979Z,-0.75
2023-02-23T03:57:43.874Z,-0.72
2023-02-23T04:00:36.124Z,-0.72
2023-02-23T04:03:24.294Z,-0.89
2023-02-23T04:06:14.707Z,-0.88
2023-02-23T04:09:01.506Z,-0.72
2023-02-23T04:11:59.084Z,-0.86
2023-02-23T04:14:33.368Z,-0.73
2023-02-23T04:17:02.568Z,-0.79
2023-02-23T04:19:29.567Z,-1.00
2023-02-23T04:21:56.645Z,-0.82
2023-02-23T04:24:23.762Z,-0.76
2023-02-23T04:27:10.678Z,-0.76
2023-02-23T04:29:57.557Z,-0.76
2023-02-23T04:32:44.383Z,-0.77
2023-02-23T04:35:33.530Z,-0.80
2023-02-23T04:38:20.471Z,-0.79
2023-02-23T04:41:07.657Z,-0.80
2023-02-23T04:43:54.493Z,-0.81
2023-02-23T04:46:41.558Z,-0.86
2023-02-23T04:49:28.575Z,-0.96
2023-02-23T04:52:15.564Z,-0.84
2023-02-23T04:55:02.681Z,-1.05
2023-02-23T04:57:50.252Z,-0.88
2023-02-23T05:00:38.692Z,-0.88
2023-02-23T05:03:25.828Z,-0.99
2023-02-23T05:06:12.683Z,-0.89
2023-02-23T05:08:59.786Z,-0.89
2023-02-23T05:11:46.635Z,-0.90
2023-02-23T05:14:33.574Z,-0.90
2023-02-23T05:17:20.453Z,-0.91
2023-02-23T05:20:07.582Z,-0.91
2023-02-23T05:22:54.589Z,-0.92
2023-02-23T05:25:41.778Z,-0.99
2023-02-23T05:28:28.757Z,-1.01
2023-02-23T05:31:15.924Z,-1.17
2023-02-23T05:34:02.833Z,-0.95
2023-02-23T05:36:49.911Z,-0.95
2023-02-23T05:39:36.731Z,-0.96
2023-02-23T05:42:23.888Z,-0.96
2023-02-23T05:45:10.826Z,-0.97
2023-02-23T05:47:57.814Z,-0.98
2023-02-23T05:50:45.185Z,-0.98
2023-02-23T05:53:32.099Z,-1.07
2023-02-23T05:56:18.955Z,-1.01
2023-02-23T05:59:09.030Z,-1.04
2023-02-23T06:01:56.133Z,-1.03
2023-02-23T06:04:43.186Z,-1.10
2023-02-23T06:07:30.036Z,-1.11
2023-02-23T06:10:17.033Z,-1.04
2023-02-23T06:13:03.818Z,-1.05
2023-02-23T06:15:50.763Z,-1.06
2023-02-23T06:18:37.677Z,-1.06
2023-02-23T06:21:24.944Z,-1.07
2023-02-23T06:24:11.798Z,-1.08
2023-02-23T06:26:58.907Z,-1.14
2023-02-23T06:29:46.654Z,-1.08
2023-02-23T06:32:33.649Z,-1.06
2023-02-23T06:35:22.880Z,-1.10
2023-02-23T06:38:09.943Z,-1.08
2023-02-23T06:40:58.197Z,-1.05
2023-02-23T06:43:45.168Z,-1.04
2023-02-23T06:46:32.051Z,-1.05
2023-02-23T06:49:19.793Z,-1.04
2023-02-23T06:52:06.778Z,-1.04
2023-02-23T06:54:53.725Z,-1.06
2023-02-23T06:57:40.896Z,-1.05
2023-02-23T07:00:28.617Z,-1.04
2023-02-23T07:03:17.030Z,-1.04
2023-02-23T07:06:03.913Z,-1.03
2023-02-23T07:08:50.855Z,-1.04
2023-02-23T07:11:37.889Z,-1.03
2023-02-23T07:14:27.020Z,-1.04
2023-02-23T07:17:14.662Z,-1.03
2023-02-23T07:20:01.680Z,-1.12
